createdAt,value
2023-02-17T00:01:24.469Z,14.63
2023-02-17T00:03:53.510Z,12.52
2023-02-17T00:08:50.070Z,10.75
2023-02-17T00:11:18.395Z,11.85
2023-02-17T00:13:46.460Z,14.77
2023-02-17T00:16:18.409Z,11.90
2023-02-17T00:18:46.717Z,12.23
2023-02-17T00:21:17.444Z,12.10
2023-02-17T00:23:46.233Z,15.93
2023-02-17T00:26:14.354Z,16.70
2023-02-17T00:28:44.569Z,9.90
2023-02-17T00:31:17.389Z,14.45
2023-02-17T00:33:45.146Z,13.73
2023-02-17T00:36:15.860Z,12.25
2023-02-17T00:38:43.538Z,16.25
2023-02-17T00:41:10.927Z,16.05
2023-02-17T00:43:38.987Z,14.23
2023-02-17T00:46:06.790Z,14.05
2023-02-17T00:48:34.593Z,15.07
2023-02-17T00:51:02.101Z,13.23
2023-02-17T00:53:29.865Z,15.43
2023-02-17T00:55:57.312Z,12.30
2023-02-17T00:58:25.394Z,14.48
2023-02-17T01:00:52.791Z,15.23
2023-02-17T01:03:20.245Z,15.70
2023-02-17T01:05:49.586Z,13.85
2023-02-17T01:08:18.549Z,14.93
2023-02-17T01:10:47.041Z,17.55
2023-02-17T01:13:17.229Z,16.45
2023-02-17T01:15:49.929Z,16.33
2023-02-17T01:18:19.248Z,23.98
2023-02-17T01:20:47.041Z,14.23
2023-02-17T01:23:14.820Z,15.98
2023-02-17T01:25:45.590Z,14.02
2023-02-17T01:28:19.912Z,13.57
2023-02-17T01:30:48.401Z,12.40
2023-02-17T01:33:16.037Z,13.02
2023-02-17T01:35:43.642Z,14.75
2023-02-17T01:38:12.976Z,12.57
2023-02-17T01:40:47.566Z,12.55
2023-02-17T01:43:17.706Z,14.25
2023-02-17T01:45:53.702Z,14.13
2023-02-17T01:48:25.746Z,9.85
2023-02-17T01:51:09.788Z,12.38
2023-02-17T01:53:58.389Z,12.52
2023-02-17T01:56:27.026Z,13.20
2023-02-17T01:59:01.722Z,14.45
2023-02-17T02:01:32.146Z,10.45
2023-02-17T02:04:03.615Z,12.68
2023-02-17T02:06:34.265Z,12.32
2023-02-17T02:09:11.805Z,13.48
2023-02-17T02:11:39.522Z,13.75
2023-02-17T02:14:09.238Z,16.63
2023-02-17T02:16:50.948Z,10.57
2023-02-17T02:19:24.376Z,15.20
2023-02-17T02:21:51.697Z,11.48
2023-02-17T02:24:39.321Z,13.23
2023-02-17T02:27:28.144Z,15.23
2023-02-17T02:30:39.980Z,12.98
2023-02-17T02:33:20.757Z,12.15
2023-02-17T02:36:08.444Z,14.80
2023-02-17T02:38:43.177Z,13.52
2023-02-17T02:41:19.806Z,14.40
2023-02-17T02:43:49.557Z,14.85
2023-02-17T02:46:17.351Z,15.70
2023-02-17T02:48:45.998Z,14.63
2023-02-17T02:51:55.329Z,14.18
2023-02-17T02:54:50.695Z,10.93
2023-02-17T02:57:31.296Z,13.85
2023-02-17T03:00:17.918Z,12.10
2023-02-17T03:02:59.989Z,13.70
2023-02-17T03:05:37.000Z,13.32
2023-02-17T03:08:12.839Z,14.02
2023-02-17T03:10:54.127Z,12.50
2023-02-17T03:13:22.051Z,12.90
2023-02-17T03:15:50.056Z,12.07
2023-02-17T03:18:17.472Z,16.42
2023-02-17T03:20:53.360Z,14.23
2023-02-17T03:23:21.241Z,14.82
2023-02-17T03:25:50.065Z,13.27
2023-02-17T03:28:18.840Z,15.30
2023-02-17T03:30:47.122Z,15.73
2023-02-17T03:33:14.481Z,16.60
2023-02-17T03:35:41.840Z,13.77
2023-02-17T03:38:09.354Z,13.48
2023-02-17T03:40:36.794Z,13.23
2023-02-17T03:43:04.240Z,13.68
2023-02-17T03:45:32.210Z,13.43
2023-02-17T03:47:59.994Z,12.25
2023-02-17T03:50:27.353Z,14.65
2023-02-17T03:52:54.776Z,15.18
2023-02-17T03:55:22.212Z,16.42
2023-02-17T03:57:49.605Z,14.30
2023-02-17T04:00:17.265Z,14.73
2023-02-17T04:02:44.714Z,16.55
2023-02-17T04:05:12.251Z,14.25
2023-02-17T04:07:39.736Z,19.17
2023-02-17T04:10:09.547Z,16.60
2023-02-17T04:12:37.120Z,18.17
2023-02-17T04:15:04.734Z,17.45
2023-02-17T04:17:32.424Z,16.30
2023-02-17T04:20:00.188Z,14.10
2023-02-17T04:22:27.600Z,15.50
2023-02-17T04:24:55.044Z,15.30
2023-02-17T04:27:22.635Z,14.27
2023-02-17T04:29:51.967Z,16.70
2023-02-17T04:32:19.394Z,17.33
2023-02-17T04:34:46.775Z,15.60
2023-02-17T04:37:14.156Z,15.63
2023-02-17T04:39:41.666Z,17.27
2023-02-17T04:42:09.129Z,13.32
2023-02-17T04:44:36.646Z,19.65
2023-02-17T04:47:04.428Z,18.50
2023-02-17T04:49:32.431Z,21.00
2023-02-17T04:52:00.386Z,15.90
2023-02-17T04:54:28.325Z,16.38
2023-02-17T04:56:56.873Z,14.05
2023-02-17T04:59:25.669Z,14.25
2023-02-17T05:01:56.328Z,12.15
2023-02-17T05:04:27.499Z,13.63
2023-02-17T05:06:55.241Z,13.38
2023-02-17T05:09:23.864Z,10.48
2023-02-17T05:11:51.864Z,16.05
2023-02-17T05:14:23.015Z,14.90
2023-02-17T05:16:51.203Z,15.18
2023-02-17T05:19:19.036Z,9.68
2023-02-17T05:21:46.684Z,14.63
2023-02-17T05:24:14.555Z,15.32
2023-02-17T05:26:42.456Z,13.30
2023-02-17T05:29:10.643Z,12.75
2023-02-17T05:31:39.299Z,16.13
2023-02-17T05:34:08.125Z,12.43
2023-02-17T05:36:36.952Z,13.00
2023-02-17T05:39:05.096Z,14.50
2023-02-17T05:41:36.540Z,14.68
2023-02-17T05:44:04.424Z,16.75
2023-02-17T05:46:33.451Z,16.08
2023-02-17T05:49:03.767Z,13.82
2023-02-17T05:51:32.996Z,15.85
2023-02-17T05:54:00.970Z,15.38
2023-02-17T05:56:29.066Z,14.48
2023-02-17T05:58:57.048Z,13.27
2023-02-17T06:01:25.542Z,13.23
2023-02-17T06:03:56.387Z,13.07
2023-02-17T06:06:24.610Z,16.25
2023-02-17T06:08:53.315Z,13.02
2023-02-17T06:11:25.755Z,12.45
2023-02-17T06:13:54.967Z,14.00
2023-02-17T06:16:22.636Z,12.10
2023-02-17T06:18:51.454Z,12.55
2023-02-17T06:21:19.431Z,12.77
2023-02-17T06:23:47.692Z,13.98
2023-02-17T06:26:16.040Z,12.20
2023-02-17T06:28:45.056Z,11.85
2023-02-17T06:31:13.427Z,12.23
2023-02-17T06:33:42.551Z,11.32
2023-02-17T06:36:10.699Z,13.63
2023-02-17T06:38:38.247Z,11.32
2023-02-17T06:41:07.100Z,13.23
2023-02-17T06:43:34.660Z,11.80
2023-02-17T06:46:02.491Z,13.50
2023-02-17T06:48:33.488Z,12.23
2023-02-17T06:51:01.684Z,13.02
2023-02-17T06:53:29.635Z,12.32
2023-02-17T06:55:57.357Z,13.35
2023-02-17T06:58:28.160Z,12.85
2023-02-17T07:00:55.738Z,12.35
2023-02-17T07:03:24.745Z,16.50
2023-02-17T07:05:52.325Z,15.40
2023-02-17T07:08:19.941Z,12.20
2023-02-17T07:10:47.592Z,11.95
2023-02-17T07:13:15.245Z,11.02
2023-02-17T07:15:42.947Z,9.38
2023-02-17T07:18:12.361Z,10.77
2023-02-17T07:20:40.011Z,11.70
2023-02-17T07:23:07.740Z,13.18
2023-02-17T07:25:35.267Z,11.52
2023-02-17T07:28:03.142Z,11.65
2023-02-17T07:30:32.344Z,10.98
2023-02-17T07:33:00.105Z,12.52
2023-02-17T07:35:27.708Z,12.65
2023-02-17T07:37:58.554Z,12.93
2023-02-17T07:40:26.463Z,12.10
2023-02-17T07:42:54.628Z,12.82
2023-02-17T07:45:22.899Z,15.63
2023-02-17T07:47:50.532Z,13.07
2023-02-17T07:50:18.998Z,14.25
2023-02-17T07:52:46.833Z,14.38
2023-02-17T07:55:14.726Z,15.07
2023-02-17T07:57:42.474Z,13.10
2023-02-17T08:00:12.581Z,11.93
2023-02-17T08:02:44.288Z,12.88
2023-02-17T08:05:12.227Z,17.75
2023-02-17T08:07:39.796Z,11.50
2023-02-17T08:10:26.643Z,14.82
2023-02-17T08:13:12.938Z,14.38
2023-02-17T08:15:41.775Z,12.38
2023-02-17T08:18:11.479Z,13.75
2023-02-17T08:20:39.278Z,13.90
2023-02-17T08:23:07.035Z,15.20
2023-02-17T08:25:36.553Z,14.63
2023-02-17T08:28:09.105Z,14.10
2023-02-17T08:30:37.395Z,15.88
2023-02-17T08:33:08.957Z,12.50
2023-02-17T08:35:36.993Z,13.63
2023-02-17T08:38:04.914Z,15.90
2023-02-17T08:40:32.455Z,16.50
2023-02-17T08:43:03.487Z,12.65
2023-02-17T08:45:31.447Z,14.60
2023-02-17T08:47:59.666Z,14.23
2023-02-17T08:50:27.235Z,18.33
2023-02-17T08:52:55.383Z,16.58
2023-02-17T08:55:24.287Z,14.15
2023-02-17T08:57:51.946Z,14.90
2023-02-17T09:00:19.954Z,13.15
2023-02-17T09:02:47.918Z,16.50
2023-02-17T09:05:16.049Z,17.25
2023-02-17T09:07:44.016Z,14.48
2023-02-17T09:10:12.757Z,17.15
2023-02-17T09:12:41.516Z,16.25
2023-02-17T09:15:10.346Z,16.38
2023-02-17T09:20:23.885Z,9.25
2023-02-17T09:22:52.722Z,14.95
2023-02-17T09:25:20.899Z,14.13
2023-02-17T09:27:48.874Z,19.35
2023-02-17T09:30:16.796Z,14.70
2023-02-17T09:32:44.719Z,16.75
2023-02-17T09:35:17.594Z,13.70
2023-02-17T09:37:45.727Z,15.27
2023-02-17T09:40:30.597Z,18.67
2023-02-17T09:42:58.768Z,12.95
2023-02-17T09:45:33.457Z,15.13
2023-02-17T09:48:06.375Z,16.35
2023-02-17T09:50:51.076Z,16.65
2023-02-17T09:53:53.814Z,12.85
2023-02-17T09:56:33.561Z,13.57
2023-02-17T09:59:07.764Z,14.35
2023-02-17T10:01:36.130Z,16.00
2023-02-17T10:04:11.934Z,16.27
2023-02-17T10:06:43.809Z,14.73
2023-02-17T10:09:36.764Z,12.40
2023-02-17T10:12:10.525Z,14.02
2023-02-17T10:14:46.082Z,13.02
2023-02-17T10:17:32.456Z,16.55
2023-02-17T10:20:11.862Z,15.77
2023-02-17T10:22:43.368Z,11.70
2023-02-17T10:25:20.330Z,14.38
2023-02-17T10:28:09.403Z,11.27
2023-02-17T10:30:48.036Z,16.70
2023-02-17T10:33:34.474Z,15.68
2023-02-17T10:36:13.176Z,13.35
2023-02-17T10:38:53.076Z,15.68
2023-02-17T10:41:28.429Z,13.85
2023-02-17T10:43:56.469Z,14.75
2023-02-17T10:46:29.770Z,14.32
2023-02-17T10:48:59.694Z,14.80
2023-02-17T10:51:30.506Z,12.98
2023-02-17T10:54:12.380Z,16.65
2023-02-17T10:59:17.585Z,13.88
2023-02-17T11:01:45.414Z,13.98
2023-02-17T11:04:14.221Z,14.38
2023-02-17T11:06:51.476Z,12.82
2023-02-17T11:09:28.835Z,14.05
2023-02-17T11:12:03.073Z,13.20
2023-02-17T11:14:33.899Z,13.48
2023-02-17T11:17:04.612Z,13.75
2023-02-17T11:19:35.132Z,13.07
2023-02-17T11:22:05.991Z,13.57
2023-02-17T11:24:35.320Z,15.88
2023-02-17T11:27:12.364Z,13.77
2023-02-17T11:29:40.419Z,13.35
2023-02-17T11:32:12.857Z,13.98
2023-02-17T11:34:43.029Z,16.60
2023-02-17T11:37:13.824Z,16.17
2023-02-17T11:39:43.818Z,15.18
2023-02-17T11:42:21.316Z,15.52
2023-02-17T11:44:50.378Z,13.80
2023-02-17T11:47:40.199Z,17.33
2023-02-17T11:50:38.941Z,18.30
2023-02-17T11:53:28.818Z,14.15
2023-02-17T11:56:09.057Z,15.43
2023-02-17T11:58:49.012Z,15.55
2023-02-17T12:02:15.206Z,16.30
2023-02-17T12:05:24.721Z,14.95
2023-02-17T12:08:06.492Z,15.27
2023-02-17T12:10:46.516Z,16.48
2023-02-17T12:13:14.354Z,16.00
2023-02-17T12:16:09.128Z,14.07
2023-02-17T12:19:06.280Z,19.73
2023-02-17T12:21:55.371Z,18.13
2023-02-17T12:24:43.875Z,14.77
2023-02-17T12:27:33.661Z,15.02
2023-02-17T12:30:39.715Z,13.57
2023-02-17T12:33:16.602Z,14.07
2023-02-17T12:35:44.151Z,14.55
2023-02-17T12:38:17.182Z,17.40
2023-02-17T12:41:16.136Z,15.65
2023-02-17T12:44:07.584Z,14.23
2023-02-17T12:46:47.941Z,14.18
2023-02-17T12:49:31.033Z,14.20
2023-02-17T12:52:01.917Z,15.23
2023-02-17T12:54:52.534Z,15.30
2023-02-17T12:57:46.865Z,17.90
2023-02-17T13:00:46.658Z,11.90
2023-02-17T13:03:14.990Z,16.35
2023-02-17T13:06:04.657Z,13.85
2023-02-17T13:08:43.528Z,15.90
2023-02-17T13:11:28.104Z,16.38
2023-02-17T13:13:55.808Z,15.88
2023-02-17T13:16:23.847Z,14.27
2023-02-17T13:18:52.736Z,14.25
2023-02-17T13:24:15.734Z,18.63
2023-02-17T13:26:44.674Z,14.70
2023-02-17T13:29:27.156Z,14.25
2023-02-17T13:32:04.049Z,14.90
2023-02-17T13:34:35.463Z,14.30
2023-02-17T13:37:18.601Z,14.27
2023-02-17T13:39:46.944Z,15.00
2023-02-17T13:42:35.675Z,18.17
2023-02-17T13:45:33.987Z,15.48
2023-02-17T13:48:32.345Z,16.73
2023-02-17T13:51:02.032Z,20.73
2023-02-17T13:53:38.672Z,17.83
2023-02-17T13:56:11.748Z,16.95
2023-02-17T13:58:44.070Z,15.85
2023-02-17T14:01:18.113Z,13.80
2023-02-17T14:03:55.550Z,17.10
2023-02-17T14:06:29.101Z,15.85
2023-02-17T14:08:57.328Z,15.68
2023-02-17T14:11:31.280Z,18.88
2023-02-17T14:14:01.236Z,15.57
2023-02-17T14:16:33.897Z,15.27
2023-02-17T14:19:16.645Z,18.27
2023-02-17T14:22:02.298Z,15.07
2023-02-17T14:24:38.790Z,16.17
2023-02-17T14:27:11.193Z,16.70
2023-02-17T14:29:49.661Z,15.90
2023-02-17T14:32:38.350Z,18.90
2023-02-17T14:35:13.300Z,17.38
2023-02-17T14:37:42.526Z,19.50
2023-02-17T14:40:20.553Z,19.75
2023-02-17T14:42:48.484Z,15.68
2023-02-17T14:45:16.972Z,16.27
2023-02-17T14:47:44.736Z,20.58
2023-02-17T14:50:13.147Z,18.65
2023-02-17T14:52:48.798Z,18.35
2023-02-17T14:55:26.944Z,20.35
2023-02-17T14:57:54.905Z,25.25
2023-02-17T15:00:22.879Z,17.42
2023-02-17T15:02:51.597Z,18.50
2023-02-17T15:05:19.834Z,15.32
2023-02-17T15:07:47.368Z,18.88
2023-02-17T15:10:29.374Z,19.42
2023-02-17T15:12:57.348Z,16.98
2023-02-17T15:15:25.032Z,17.88
2023-02-17T15:17:52.514Z,16.90
2023-02-17T15:20:20.064Z,19.15
2023-02-17T15:22:47.691Z,17.35
2023-02-17T15:25:32.913Z,17.60
2023-02-17T15:28:00.361Z,17.65
2023-02-17T15:30:28.631Z,17.98
2023-02-17T15:32:56.109Z,18.00
2023-02-17T15:35:26.707Z,21.67
2023-02-17T15:37:56.746Z,21.38
2023-02-17T15:40:26.322Z,22.45
2023-02-17T15:42:57.054Z,20.85
2023-02-17T15:45:25.426Z,19.92
2023-02-17T15:48:02.758Z,18.20
2023-02-17T15:50:30.223Z,20.33
2023-02-17T15:52:57.631Z,16.88
2023-02-17T15:55:26.235Z,21.80
2023-02-17T15:57:57.069Z,20.60
2023-02-17T16:00:27.573Z,22.88
2023-02-17T16:02:55.706Z,18.90
2023-02-17T16:05:27.454Z,21.52
2023-02-17T16:07:55.416Z,20.85
2023-02-17T16:10:29.636Z,22.42
2023-02-17T16:12:59.764Z,22.52
2023-02-17T16:15:31.001Z,24.27
2023-02-17T16:17:59.130Z,25.60
2023-02-17T16:20:35.357Z,23.05
2023-02-17T16:23:03.290Z,22.25
2023-02-17T16:25:31.119Z,16.70
2023-02-17T16:27:58.637Z,16.50
2023-02-17T16:30:35.961Z,16.67
2023-02-17T16:33:04.018Z,17.50
2023-02-17T16:35:32.824Z,18.95
2023-02-17T16:38:00.492Z,18.70
2023-02-17T16:40:32.858Z,19.73
2023-02-17T16:43:00.513Z,20.23
2023-02-17T16:45:31.721Z,21.42
2023-02-17T16:48:00.894Z,22.23
2023-02-17T16:50:30.940Z,22.30
2023-02-17T16:53:01.461Z,23.33
2023-02-17T16:55:32.019Z,22.08
2023-02-17T16:57:59.902Z,21.30
2023-02-17T17:00:30.038Z,20.95
2023-02-17T17:02:58.523Z,23.55
2023-02-17T17:05:28.292Z,18.73
2023-02-17T17:07:56.432Z,22.85
2023-02-17T17:10:28.154Z,23.23
2023-02-17T17:12:55.789Z,22.05
2023-02-17T17:15:23.936Z,20.45
2023-02-17T17:17:56.924Z,18.17
2023-02-17T17:20:31.354Z,18.42
2023-02-17T17:23:00.698Z,17.23
2023-02-17T17:25:29.388Z,18.17
2023-02-17T17:27:57.630Z,20.10
2023-02-17T17:30:31.631Z,21.83
2023-02-17T17:32:59.487Z,21.98
2023-02-17T17:35:27.548Z,17.92
2023-02-17T17:37:55.550Z,19.90
2023-02-17T17:40:48.720Z,22.13
2023-02-17T17:43:19.045Z,17.95
2023-02-17T17:45:47.647Z,19.40
2023-02-17T17:48:16.659Z,18.40
2023-02-17T17:53:11.862Z,16.98
2023-02-17T17:55:39.368Z,16.30
2023-02-17T17:58:06.881Z,14.23
2023-02-17T18:00:34.418Z,14.63
2023-02-17T18:03:01.895Z,12.88
2023-02-17T18:05:29.586Z,12.75
2023-02-17T18:07:57.127Z,13.70
2023-02-17T18:10:24.737Z,13.00
2023-02-17T18:12:52.235Z,13.25
2023-02-17T18:15:19.991Z,22.17
2023-02-17T18:17:48.685Z,19.17
2023-02-17T18:20:16.225Z,15.10
2023-02-17T18:22:43.684Z,13.65
2023-02-17T18:25:11.194Z,14.85
2023-02-17T18:27:46.731Z,16.45
2023-02-17T18:30:20.532Z,14.82
2023-02-17T18:32:48.661Z,15.75
2023-02-17T18:35:16.799Z,15.80
2023-02-17T18:37:45.371Z,18.77
2023-02-17T18:40:17.660Z,16.25
2023-02-17T18:42:48.597Z,15.95
2023-02-17T18:45:16.618Z,16.95
2023-02-17T18:47:44.443Z,17.05
2023-02-17T18:50:12.846Z,16.02
2023-02-17T18:52:41.875Z,16.00
2023-02-17T18:57:37.666Z,17.45
2023-02-17T19:00:09.606Z,13.70
2023-02-17T19:02:38.412Z,14.40
2023-02-17T19:05:07.881Z,16.92
2023-02-17T19:07:35.529Z,15.73
2023-02-17T19:10:03.648Z,18.83
2023-02-17T19:12:31.210Z,15.68
2023-02-17T19:14:58.615Z,15.73
2023-02-17T19:17:26.116Z,17.80
2023-02-17T19:19:53.537Z,23.65
2023-02-17T19:22:21.019Z,17.42
2023-02-17T19:24:52.806Z,19.58
2023-02-17T19:27:23.871Z,17.20
2023-02-17T19:29:51.283Z,19.77
2023-02-17T19:32:18.771Z,18.77
2023-02-17T19:34:46.232Z,18.05
2023-02-17T19:37:13.593Z,16.33
2023-02-17T19:39:41.104Z,17.60
2023-02-17T19:42:08.766Z,17.75
2023-02-17T19:44:36.140Z,18.80
2023-02-17T19:47:03.555Z,19.83
2023-02-17T19:49:31.667Z,21.48
2023-02-17T19:51:59.077Z,20.55
2023-02-17T19:54:26.536Z,20.30
2023-02-17T19:56:53.964Z,14.50
2023-02-17T19:59:21.462Z,21.23
2023-02-17T20:01:49.042Z,21.67
2023-02-17T20:04:16.912Z,18.65
2023-02-17T20:06:47.812Z,17.77
2023-02-17T20:09:19.477Z,23.33
2023-02-17T20:11:48.428Z,20.08
2023-02-17T20:14:16.112Z,18.05
2023-02-17T20:16:43.535Z,21.10
2023-02-17T20:19:10.900Z,21.80
2023-02-17T20:21:38.791Z,19.30
2023-02-17T20:24:06.586Z,20.88
2023-02-17T20:26:40.569Z,19.95
2023-02-17T20:29:08.628Z,20.13
2023-02-17T20:31:37.859Z,19.00
2023-02-17T20:34:07.199Z,22.05
2023-02-17T20:36:34.898Z,20.80
2023-02-17T20:39:02.839Z,22.25
2023-02-17T20:41:30.452Z,19.67
2023-02-17T20:44:01.573Z,24.10
2023-02-17T20:46:29.997Z,23.08
2023-02-17T20:48:57.444Z,19.70
2023-02-17T20:51:24.956Z,20.42
2023-02-17T20:53:52.514Z,23.60
2023-02-17T20:56:23.233Z,19.45
2023-02-17T20:58:51.799Z,24.27
2023-02-17T21:01:19.841Z,21.15
2023-02-17T21:03:48.063Z,21.15
